Portada
METAR-TAF:

METAR-TAF

Aeroports :

Pikeville, Kentucky, Estats Units d'Amèrica

latitud: 37-33-42N, longitud: 082-33-59W, altitud: 449 m

Observació

L'informe es va fer fa 18 minuts, a les 16:35 UTC
Vent 4 kt del Sud-Oest
Temperatura 29°C
Humitat 70%
Pressió 1017 hPa
Visibilitat: 16.1 km
Cel ennuvolat a una alçada de 2800 ft
Cel ennuvolat a una alçada de 3500 ft

METAR: KPBX 251635Z AUTO 22004KT 10SM BKN028 BKN035 29/23 A3004 RMK AO2 T02890228

Hora: 12:53 (16:53 UTC)


TAF: manca

Observacions i pronòstics meteorològics de més de 4000 aeroports (METAR i TAF).

Les estacions disponibles són els punts grocs i vermells al mapa.

Posi el ratolí al punt desitjat per veure el nom de l'estació.

Feu clic per veure les observacions i els pronòstics meteorològics.

Per canviar el mapa: feu clic els botons verds amb una creu de color negre per apropar; al botó verd amb un guió per allunyar la imatge; o en les fletxes verdes per a mapes adjacents.


METAR-TAF: